Portada
METAR-TAF:

METAR-TAF

Aeroports :

Rio Branco, Acre, Brasil

latitud: 10-00S, longitud: 067-48W, altitud: 142 m

Observació

L'informe es va fer fa 51 minuts, a les 04:00 UTC
Vent calma
Temperatura 23°C
Humitat 73%
Pressió 1015 hPa
Visibilitat 10 km o més
sense núvols per sota de 1500 mi sense presència de cumulonimbus.

METAR: SBRB 090400Z 00000KT CAVOK 23/18 Q1015

Hora: 23:51 (04:51 UTC)

Pronòstic

L'informe es va fer fa 7 hores i 51 minuts, a les 21:00 UTC
Pronòstic vàlid del 09 a les 00 UTC al 09 a les 12 UTC
Vent 5 kt del Est
Visibilitat 10 km o més
sense núvols per sota de 1500 mi sense presència de cumulonimbus.

TAF: SBRB 082100Z 0900/0912 09005KT CAVOK TX30/0900Z TN24/0908Z RMK PCZ

Observacions i pronòstics meteorològics de més de 4000 aeroports (METAR i TAF).

Les estacions disponibles són els punts grocs i vermells al mapa.

Posi el ratolí al punt desitjat per veure el nom de l'estació.

Feu clic per veure les observacions i els pronòstics meteorològics.

Per canviar el mapa: feu clic els botons verds amb una creu de color negre per apropar; al botó verd amb un guió per allunyar la imatge; o en les fletxes verdes per a mapes adjacents.


METAR-TAF: